Time;durP1;ratioP1;P1;durP2;ratioP2;P2;SDS_P1;SDS_P2;PMS_P1;PMS_P2;Temp;Humidity;BMP_temperature;BMP_pressure;BME280_temperature;BME280_humidity;BME280_pressure;Samples;Min_cycle;Max_cycle;Signal;HPM_P1;HPM_P2
2021/10/25 00:01:23;;;;;;;17.70;12.40;;;;;;;9.52;66.71;97176.44;5071774;28;20413;-65
2021/10/25 00:03:48;;;;;;;16.47;12.03;;;;;;;9.56;66.76;97175.19;5055069;28;20184;-67
2021/10/25 00:06:14;;;;;;;22.53;11.63;;;;;;;9.55;66.86;97173.53;5072195;28;20178;-65
2021/10/25 00:08:40;;;;;;;17.60;11.70;;;;;;;9.72;66.49;97174.53;5053281;28;20205;-66
2021/10/25 00:11:05;;;;;;;16.40;11.80;;;;;;;9.63;66.41;97173.59;5052780;28;20206;-66
2021/10/25 00:13:31;;;;;;;14.53;11.20;;;;;;;9.65;65.94;97170.84;5069245;28;20217;-65
2021/10/25 00:15:57;;;;;;;12.50;10.97;;;;;;;9.53;66.36;97165.00;5063666;28;20263;-66
2021/10/25 00:18:22;;;;;;;17.13;12.07;;;;;;;9.52;66.28;97177.25;5068283;28;20249;-66
2021/10/25 00:20:48;;;;;;;20.13;11.73;;;;;;;9.56;66.34;97177.78;5074849;28;20187;-66
2021/10/25 00:23:14;;;;;;;16.33;11.80;;;;;;;9.55;66.06;97173.53;5072493;28;20179;-66
2021/10/25 00:25:41;;;;;;;15.37;11.03;;;;;;;9.52;66.34;97176.44;5074565;28;20200;-64
2021/10/25 00:28:07;;;;;;;15.07;11.33;;;;;;;9.55;65.71;97172.69;5055841;28;20429;-65
2021/10/25 00:30:32;;;;;;;18.10;11.30;;;;;;;9.54;65.54;97179.72;5074119;28;20876;-64
2021/10/25 00:32:58;;;;;;;15.90;11.10;;;;;;;9.43;65.74;97177.31;5074055;28;20681;-65
2021/10/25 00:35:23;;;;;;;13.30;11.57;;;;;;;9.40;65.25;97177.59;5074066;28;20195;-66
2021/10/25 00:37:49;;;;;;;13.20;10.77;;;;;;;9.37;65.05;97181.34;5072098;28;20671;-66
2021/10/25 00:40:15;;;;;;;17.23;12.00;;;;;;;9.33;65.18;97180.78;5073915;28;20209;-65
2021/10/25 00:42:40;;;;;;;12.40;10.97;;;;;;;9.30;65.35;97175.03;5073029;28;20174;-62
2021/10/25 00:45:08;;;;;;;16.87;11.10;;;;;;;9.26;65.33;97174.50;5064678;28;20676;-64
2021/10/25 00:47:33;;;;;;;15.17;11.37;;;;;;;9.21;65.59;97181.94;5051903;28;20515;-65
2021/10/25 00:49:59;;;;;;;15.50;11.30;;;;;;;9.21;65.89;97181.94;5072542;28;20523;-65
2021/10/25 00:52:25;;;;;;;12.80;10.53;;;;;;;9.15;65.44;97182.53;5063808;28;20208;-66
2021/10/25 00:54:51;;;;;;;14.23;10.67;;;;;;;9.11;65.71;97176.75;5067292;28;20214;-64
2021/10/25 00:57:17;;;;;;;15.83;11.13;;;;;;;8.98;65.86;97166.63;5071017;28;20186;-65
2021/10/25 00:59:43;;;;;;;14.17;11.50;;;;;;;8.96;65.92;97184.22;5072229;28;20448;-65
2021/10/25 01:02:08;;;;;;;15.20;10.97;;;;;;;8.96;66.32;97175.56;5073488;28;20896;-65
2021/10/25 01:04:34;;;;;;;12.40;10.47;;;;;;;8.96;65.67;97183.41;5073399;28;20424;-65
2021/10/25 01:07:00;;;;;;;15.30;10.97;;;;;;;8.95;65.92;97179.97;5071871;28;20183;-66
2021/10/25 01:09:26;;;;;;;18.40;11.57;;;;;;;8.88;65.88;97171.06;5072058;28;20657;-65
2021/10/25 01:11:52;;;;;;;14.37;11.80;;;;;;;8.72;66.85;97177.69;5073100;28;20206;-64
2021/10/25 01:14:18;;;;;;;17.63;12.10;;;;;;;8.75;67.86;97174.81;5064700;28;20639;-65
2021/10/25 01:16:44;;;;;;;14.93;10.93;;;;;;;8.97;67.38;97169.38;5051667;28;20460;-64
2021/10/25 01:19:10;;;;;;;15.87;10.53;;;;;;;9.19;66.46;97170.81;5062793;28;20448;-65
2021/10/25 01:21:36;;;;;;;13.27;9.70;;;;;;;9.32;65.49;97168.69;5066267;28;20432;-65
2021/10/25 01:24:03;;;;;;;14.07;10.80;;;;;;;9.51;64.36;97161.69;5055219;28;20433;-67
2021/10/25 01:26:29;;;;;;;12.50;10.40;;;;;;;9.55;63.44;97160.44;5072023;28;20606;-66
2021/10/25 01:28:54;;;;;;;14.33;9.97;;;;;;;9.50;63.93;97154.81;5069875;28;20445;-65
2021/10/25 01:31:22;;;;;;;13.27;9.93;;;;;;;9.51;63.65;97151.22;5070876;28;20182;-66
2021/10/25 01:33:50;;;;;;;10.00;8.87;;;;;;;9.50;63.51;97155.66;5072465;28;20224;-65
2021/10/25 01:36:15;;;;;;;12.37;9.07;;;;;;;9.47;63.06;97149.88;5057067;28;20494;-66
2021/10/25 01:38:41;;;;;;;12.33;9.97;;;;;;;9.42;63.54;97145.09;5065417;28;20454;-66
2021/10/25 01:41:08;;;;;;;12.80;9.63;;;;;;;9.40;63.07;97143.59;5067605;28;20641;-66
2021/10/25 01:43:35;;;;;;;10.97;9.00;;;;;;;9.36;63.10;97143.06;5060290;28;20558;-64
2021/10/25 01:46:02;;;;;;;12.77;10.40;;;;;;;9.30;63.10;97136.63;5051248;28;20454;-66
2021/10/25 01:48:27;;;;;;;12.90;10.07;;;;;;;9.27;63.45;97144.75;5072026;28;20428;-66
2021/10/25 01:50:53;;;;;;;14.80;10.07;;;;;;;9.24;63.48;97144.22;5070329;28;20436;-65
2021/10/25 01:53:19;;;;;;;13.90;9.80;;;;;;;9.24;63.44;97146.84;5055954;28;20198;-65
2021/10/25 01:55:47;;;;;;;13.43;10.40;;;;;;;9.19;64.02;97142.06;5043978;28;20176;-65
2021/10/25 01:58:13;;;;;;;13.10;9.77;;;;;;;9.13;63.95;97140.84;5077044;28;20202;-65
2021/10/25 02:00:38;;;;;;;12.70;9.77;;;;;;;9.10;63.91;97141.13;5075895;28;21042;-65
2021/10/25 02:03:04;;;;;;;15.70;9.00;;;;;;;9.10;63.98;97141.13;5080467;28;20182;-66
2021/10/25 02:05:30;;;;;;;12.40;9.77;;;;;;;9.03;63.68;97142.66;5044973;28;20528;-66
2021/10/25 02:07:55;;;;;;;11.10;9.27;;;;;;;8.99;63.38;97138.69;5053621;28;20425;-67
2021/10/25 02:10:21;;;;;;;10.30;8.20;;;;;;;8.97;64.00;97132.78;5072097;28;20206;-66
2021/10/25 02:12:46;;;;;;;11.30;9.00;;;;;;;8.94;63.72;97133.91;5072056;28;20203;-67
2021/10/25 02:15:12;;;;;;;11.07;8.97;;;;;;;8.91;63.71;97135.00;5070730;28;20667;-66
2021/10/25 02:17:38;;;;;;;11.30;8.70;;;;;;;8.91;63.54;97140.22;5059108;28;20209;-64
2021/10/25 02:20:04;;;;;;;9.40;7.80;;;;;;;8.94;63.91;97136.53;5070731;28;20214;-65
2021/10/25 02:22:30;;;;;;;9.20;7.93;;;;;;;8.96;64.00;97137.19;5064906;28;20171;-65
2021/10/25 02:24:56;;;;;;;10.37;8.37;;;;;;;8.96;63.83;97125.91;5068625;28;20474;-66
2021/10/25 02:27:23;;;;;;;11.13;8.83;;;;;;;8.96;63.17;97126.72;5038248;28;20186;-65
2021/10/25 02:29:49;;;;;;;12.03;8.77;;;;;;;8.92;63.20;97120.16;5069431;28;20467;-68
2021/10/25 02:32:16;;;;;;;10.67;7.90;;;;;;;8.88;62.80;97124.00;5063446;28;21032;-66
2021/10/25 02:34:44;;;;;;;10.77;8.50;;;;;;;8.85;63.20;97124.28;5045325;28;20867;-65
2021/10/25 02:37:11;;;;;;;10.27;8.57;;;;;;;8.83;63.37;97123.59;5063028;28;20440;-67
2021/10/25 02:39:38;;;;;;;12.30;8.10;;;;;;;8.81;62.63;97112.50;5070992;28;20810;-65
2021/10/25 02:42:04;;;;;;;8.90;7.60;;;;;;;8.78;63.16;97107.56;5071606;28;20452;-67
2021/10/25 02:44:29;;;;;;;11.57;8.40;;;;;;;8.75;63.26;97112.09;5071031;28;20977;-70
2021/10/25 02:46:55;;;;;;;13.57;9.00;;;;;;;8.74;63.27;97104.41;5062597;28;20424;-64
2021/10/25 02:49:21;;;;;;;10.33;8.27;;;;;;;8.72;63.08;97101.91;5053937;28;20277;-64
2021/10/25 02:51:47;;;;;;;11.57;8.27;;;;;;;8.68;63.44;97105.81;5070035;28;20557;-65
2021/10/25 02:54:13;;;;;;;8.67;7.67;;;;;;;8.68;63.77;97095.34;5072353;28;20464;-65
2021/10/25 02:56:38;;;;;;;10.87;8.50;;;;;;;8.73;63.33;97102.75;5068003;28;20182;-63
2021/10/25 02:59:09;;;;;;;8.60;7.60;;;;;;;8.78;63.47;97104.94;5071349;28;20743;-67
2021/10/25 03:01:39;;;;;;;9.20;7.50;;;;;;;8.80;62.74;97098.59;5071831;28;20186;-65
2021/10/25 03:04:06;;;;;;;10.23;7.70;;;;;;;8.79;62.96;97098.75;5064306;28;20433;-67
2021/10/25 03:06:33;;;;;;;11.07;7.57;;;;;;;8.75;62.59;97099.03;5061210;28;20971;-67
2021/10/25 03:08:59;;;;;;;8.60;6.90;;;;;;;8.78;62.73;97091.88;5054008;28;20974;-67
2021/10/25 03:11:25;;;;;;;8.97;6.90;;;;;;;8.76;62.44;97095.44;5057705;28;20841;-66
2021/10/25 03:13:51;;;;;;;7.80;6.80;;;;;;;8.71;62.50;97097.66;5050758;28;20437;-67
2021/10/25 03:16:17;;;;;;;9.70;7.40;;;;;;;8.67;62.69;97088.47;5050779;28;20421;-66
2021/10/25 03:18:43;;;;;;;9.47;7.10;;;;;;;8.62;62.73;97092.50;5050655;28;20831;-64
2021/10/25 03:21:08;;;;;;;8.37;6.73;;;;;;;8.59;62.81;97093.56;5051817;28;20438;-65
2021/10/25 03:23:35;;;;;;;7.63;6.60;;;;;;;8.59;62.70;97094.41;5054325;28;20526;-69
2021/10/25 03:26:01;;;;;;;8.67;6.40;;;;;;;8.60;62.16;97090.84;5048642;28;20228;-64
2021/10/25 03:28:27;;;;;;;8.70;6.20;;;;;;;8.65;61.93;97092.19;5049832;28;20900;-66
2021/10/25 03:30:53;;;;;;;8.10;6.50;;;;;;;8.67;62.35;97098.09;5050378;28;20514;-64
2021/10/25 03:33:20;;;;;;;7.00;6.07;;;;;;;8.64;61.63;97091.38;5049570;28;20489;-65
2021/10/25 03:35:46;;;;;;;6.10;5.10;;;;;;;8.66;61.83;97096.44;5060792;28;20963;-66
2021/10/25 03:38:14;;;;;;;9.70;5.90;;;;;;;8.67;61.40;97098.09;5049223;28;20425;-66
2021/10/25 03:40:43;;;;;;;5.60;4.90;;;;;;;8.68;61.42;97094.50;5048839;28;20199;-64
2021/10/25 03:43:09;;;;;;;5.37;4.87;;;;;;;8.67;61.56;97093.69;5057108;28;20468;-66
2021/10/25 03:45:44;;;;;;;6.53;5.63;;;;;;;8.65;61.97;97094.78;5051782;28;20475;-65
2021/10/25 03:48:22;;;;;;;6.27;4.97;;;;;;;8.65;61.73;97087.78;5042064;28;20955;-66
2021/10/25 03:50:49;;;;;;;4.87;4.37;;;;;;;8.65;61.22;97082.56;5055074;28;20777;-67
2021/10/25 03:53:34;;;;;;;6.87;5.40;;;;;;;8.67;61.64;97091.09;5058438;28;20895;-66
2021/10/25 03:56:08;;;;;;;6.60;5.30;;;;;;;8.72;60.79;97091.47;5058649;28;20425;-66
2021/10/25 04:28:11;;;;;;;16.10;8.60;;;;;;;8.29;61.62;97088.41;5053707;28;20436;-67
2021/10/25 04:30:37;;;;;;;14.00;8.40;;;;;;;8.27;62.14;97092.94;5055808;28;20441;-65
2021/10/25 04:33:04;;;;;;;14.53;8.10;;;;;;;8.24;62.06;97088.00;5053415;28;20540;-66
2021/10/25 04:35:30;;;;;;;11.27;8.67;;;;;;;8.24;62.22;97084.56;5054379;28;20473;-66
2021/10/25 04:37:56;;;;;;;9.50;8.00;;;;;;;8.23;62.40;97094.19;5052222;28;20437;-65
2021/10/25 04:40:22;;;;;;;15.07;8.80;;;;;;;8.20;61.67;97096.25;5043147;28;20203;-66
2021/10/25 04:42:48;;;;;;;11.53;8.60;;;;;;;8.20;62.15;97093.63;5060220;28;20969;-66
2021/10/25 04:45:15;;;;;;;13.50;9.13;;;;;;;8.19;62.19;97098.03;5053550;28;20491;-66
2021/10/25 04:47:41;;;;;;;16.37;10.03;;;;;;;8.19;62.43;97092.81;5052274;28;20183;-64
2021/10/25 04:50:06;;;;;;;13.63;9.27;;;;;;;8.14;62.18;97089.78;5053219;28;20897;-66
2021/10/25 04:52:32;;;;;;;21.33;10.73;;;;;;;8.09;62.34;97092.81;5052441;28;20199;-66
2021/10/25 04:54:58;;;;;;;11.80;8.50;;;;;;;8.08;62.10;97087.75;5054953;28;20183;-65
2021/10/25 04:57:23;;;;;;;12.97;8.20;;;;;;;8.08;62.00;97085.97;5058896;28;20190;-64
2021/10/25 04:59:49;;;;;;;16.60;9.60;;;;;;;8.06;62.36;97094.91;5061828;28;20203;-65
2021/10/25 05:02:15;;;;;;;11.70;9.10;;;;;;;8.01;61.92;97097.94;5060606;28;20180;-66
2021/10/25 05:04:41;;;;;;;12.00;8.80;;;;;;;7.94;63.07;97102.06;5048830;28;20963;-67
2021/10/25 05:07:06;;;;;;;12.87;9.63;;;;;;;7.89;62.98;97117.31;5042495;28;20269;-66
2021/10/25 05:09:33;;;;;;;11.27;8.93;;;;;;;7.93;62.30;97111.66;5053045;28;20487;-64
2021/10/25 05:11:59;;;;;;;22.53;9.10;;;;;;;7.89;62.59;97106.88;5060214;28;20706;-65
2021/10/25 05:14:25;;;;;;;17.00;10.07;;;;;;;7.79;62.09;97106.84;5061723;28;20453;-65
2021/10/25 05:16:51;;;;;;;16.50;9.80;;;;;;;7.66;62.36;97107.13;5049846;28;20430;-65
2021/10/25 05:19:16;;;;;;;23.00;10.40;;;;;;;7.67;62.25;97103.56;5071274;28;20810;-65
2021/10/25 05:21:42;;;;;;;15.27;9.90;;;;;;;7.50;63.05;97098.06;5071251;28;20665;-65
2021/10/25 05:24:07;;;;;;;16.13;10.90;;;;;;;7.56;63.03;97095.88;5070796;28;20212;-67
2021/10/25 05:26:33;;;;;;;13.50;9.90;;;;;;;7.60;63.08;97097.22;5072142;28;20183;-67
2021/10/25 05:28:59;;;;;;;14.50;10.20;;;;;;;7.65;62.65;97101.06;5061603;28;20226;-65
2021/10/25 05:31:25;;;;;;;13.50;9.57;;;;;;;7.67;62.20;97093.13;5054711;28;20512;-66
2021/10/25 05:33:51;;;;;;;14.33;10.80;;;;;;;7.64;62.64;97088.19;5051882;28;20182;-66
2021/10/25 05:36:17;;;;;;;19.53;11.20;;;;;;;7.67;62.17;97090.53;5072214;28;20439;-67
2021/10/25 05:38:42;;;;;;;18.20;11.87;;;;;;;7.58;62.20;97099.16;5072754;28;20209;-66
2021/10/25 05:41:09;;;;;;;18.43;10.10;;;;;;;7.44;62.88;97089.94;5064173;28;20182;-64
2021/10/25 05:43:36;;;;;;;15.57;10.63;;;;;;;7.28;62.96;97093.91;5072204;28;20171;-65
2021/10/25 05:46:02;;;;;;;16.37;10.50;;;;;;;7.29;62.67;97089.53;5072412;28;20484;-65
2021/10/25 05:48:28;;;;;;;17.73;11.47;;;;;;;7.31;62.80;97098.03;5069943;28;20428;-65
2021/10/25 05:50:55;;;;;;;26.43;12.13;;;;;;;7.19;63.39;97095.50;5072589;28;20429;-65
2021/10/25 05:53:21;;;;;;;16.87;11.40;;;;;;;7.30;63.48;97088.56;5071775;28;20482;-66
2021/10/25 05:55:47;;;;;;;16.70;11.07;;;;;;;7.37;62.88;97081.84;5063305;28;20560;-64
2021/10/25 05:58:32;;;;;;;14.10;10.70;;;;;;;7.41;63.12;97078.00;5071985;28;20425;-66
2021/10/25 06:01:04;;;;;;;20.73;11.33;;;;;;;7.46;63.06;97086.22;5072102;28;20429;-65
2021/10/25 06:03:33;;;;;;;15.50;10.53;;;;;;;7.51;62.33;97089.28;5071625;28;20421;-65
2021/10/25 06:05:59;;;;;;;15.50;11.03;;;;;;;7.56;62.59;97085.44;5071995;28;20429;-64
2021/10/25 06:08:24;;;;;;;25.43;11.20;;;;;;;7.57;62.54;97081.84;5071773;28;20531;-64
2021/10/25 06:10:50;;;;;;;17.93;11.30;;;;;;;7.56;62.60;97085.44;5070909;28;20183;-66
2021/10/25 06:13:33;;;;;;;15.97;10.87;;;;;;;7.60;62.62;97097.22;5069770;28;20209;-66
2021/10/25 06:16:24;;;;;;;20.80;11.67;;;;;;;7.59;63.20;97090.38;5071393;28;20253;-61
2021/10/25 06:18:45;;;;;;;25.53;11.33;;;;;;;7.59;62.95;97087.75;5064061;28;20479;-64
2021/10/25 06:21:11;;;;;;;27.13;11.97;;;;;;;7.66;62.48;97091.50;5070475;28;20929;-66
2021/10/25 06:23:37;;;;;;;17.00;10.70;;;;;;;7.71;62.76;97104.13;5062454;28;20428;-66
2021/10/25 06:26:03;;;;;;;19.40;10.13;;;;;;;7.74;62.20;97099.44;5071721;28;20429;-68
2021/10/25 06:28:30;;;;;;;24.73;9.70;;;;;;;7.81;62.12;97092.69;5071671;28;20417;-67
2021/10/25 06:31:00;;;;;;;27.37;10.37;;;;;;;7.88;62.40;97100.81;5070471;28;20996;-67
2021/10/25 06:33:26;;;;;;;22.67;10.80;;;;;;;7.94;61.69;97104.69;5057625;28;20543;-66
2021/10/25 06:36:06;;;;;;;22.50;11.10;;;;;;;7.93;61.76;97105.63;5070628;28;20805;-66
2021/10/25 06:38:41;;;;;;;24.03;11.63;;;;;;;7.91;61.71;97115.38;5069996;28;20913;-66
2021/10/25 06:41:07;;;;;;;24.10;10.83;;;;;;;7.99;61.26;97105.06;5071046;28;20507;-66
2021/10/25 06:43:33;;;;;;;19.60;10.97;;;;;;;8.00;61.57;97099.69;5067542;28;21029;-73
2021/10/25 06:45:59;;;;;;;20.07;10.37;;;;;;;8.11;61.69;97111.78;5039281;28;20426;-63
2021/10/25 06:48:24;;;;;;;27.67;11.10;;;;;;;8.21;61.46;97118.78;5056663;28;20961;-64
2021/10/25 06:50:51;;;;;;;22.80;10.80;;;;;;;8.18;60.89;97124.31;5045408;28;20252;-65
2021/10/25 06:53:17;;;;;;;18.80;10.50;;;;;;;8.27;61.55;97123.47;5042749;28;20298;-65
2021/10/25 06:55:44;;;;;;;21.40;10.13;;;;;;;8.43;60.53;97121.09;5007647;28;20490;-66
2021/10/25 06:58:10;;;;;;;22.87;11.47;;;;;;;8.52;60.51;97119.44;5047962;28;20515;-65
2021/10/25 07:00:36;;;;;;;17.07;9.80;;;;;;;8.56;60.82;97120.00;5058675;28;20534;-64
2021/10/25 07:03:01;;;;;;;16.93;10.10;;;;;;;8.53;60.51;97120.28;5046843;28;20908;-65
2021/10/25 07:05:32;;;;;;;19.57;10.10;;;;;;;8.54;61.08;97124.53;5054437;28;20358;-65
2021/10/25 07:07:58;;;;;;;15.07;9.43;;;;;;;8.53;60.26;97126.31;5047540;28;20241;-66
2021/10/25 07:10:24;;;;;;;14.33;9.67;;;;;;;8.61;60.30;97136.06;5071328;28;20437;-65
2021/10/25 07:12:50;;;;;;;24.93;9.40;;;;;;;8.63;59.81;97139.34;5067121;28;20543;-65
2021/10/25 07:15:17;;;;;;;22.97;10.30;;;;;;;8.78;60.09;97141.53;5071035;28;20549;-66
2021/10/25 08:01:53;;;;;;;15.83;6.73;;;;;;;11.58;53.45;97119.38;5048048;28;20528;-63
2021/10/25 08:12:03;;;;;;;9.07;7.07;;;;;;;12.47;52.22;97112.72;5062532;28;20504;-66
2021/10/25 08:14:44;;;;;;;17.10;7.00;;;;;;;12.65;51.46;97110.72;5065270;28;20425;-64
2021/10/25 08:17:16;;;;;;;16.23;7.63;;;;;;;12.75;51.42;97105.25;5063064;28;20424;-66
2021/10/25 08:19:41;;;;;;;13.37;7.90;;;;;;;12.89;50.95;97111.63;5069258;28;20449;-65
2021/10/25 08:22:11;;;;;;;18.63;7.10;;;;;;;12.93;50.59;97112.94;5046912;28;20713;-64
2021/10/25 08:24:40;;;;;;;12.80;5.80;;;;;;;12.99;50.32;97109.63;5054119;28;20187;-65
2021/10/25 08:27:07;;;;;;;24.30;6.93;;;;;;;13.00;50.13;97099.94;5036948;28;20425;-65
2021/10/25 08:29:33;;;;;;;9.50;5.70;;;;;;;13.17;49.63;97105.94;5059818;28;20455;-65
2021/10/25 08:40:00;;;;;;;8.93;6.10;;;;;;;13.25;48.98;97113.78;5073234;28;20436;-66
2021/10/25 08:42:28;;;;;;;10.70;6.10;;;;;;;13.31;49.20;97109.66;5074173;28;20486;-66
2021/10/25 08:45:08;;;;;;;8.80;5.03;;;;;;;13.43;49.10;97112.75;5072072;28;20951;-64
2021/10/25 08:47:38;;;;;;;8.43;4.10;;;;;;;13.31;49.05;97110.50;5068308;28;20431;-68
2021/10/25 08:50:06;;;;;;;10.17;4.40;;;;;;;13.41;48.59;97125.28;5057228;28;20468;-64
2021/10/25 08:52:32;;;;;;;10.50;4.87;;;;;;;13.37;49.17;97115.03;5056925;28;20861;-67
2021/10/25 08:55:00;;;;;;;8.33;4.43;;;;;;;13.30;48.36;97118.53;5070933;28;20486;-64
2021/10/25 08:57:26;;;;;;;9.20;5.03;;;;;;;13.43;48.60;97124.09;5065137;28;20210;-63
2021/10/25 09:00:15;;;;;;;4.47;3.90;;;;;;;13.41;48.89;97117.38;5072079;28;20477;-66
2021/10/25 09:02:43;;;;;;;8.30;4.00;;;;;;;13.32;49.38;97120.03;5060895;28;20424;-65
2021/10/25 09:05:11;;;;;;;7.43;3.73;;;;;;;13.17;49.29;97116.47;5058031;28;20437;-66
2021/10/25 09:08:04;;;;;;;10.43;5.30;;;;;;;13.32;49.77;97113.91;5072094;28;20420;-66
2021/10/25 09:10:40;;;;;;;9.50;4.30;;;;;;;13.47;48.88;97108.81;5061570;28;20523;-64
2021/10/25 09:13:16;;;;;;;7.30;4.10;;;;;;;13.64;48.09;97110.31;5071963;28;20464;-65
2021/10/25 09:15:45;;;;;;;4.30;3.50;;;;;;;13.74;47.55;97110.09;5080649;28;20448;-68
2021/10/25 09:18:31;;;;;;;8.03;3.87;;;;;;;13.76;47.78;97104.66;5079716;28;20425;-65
2021/10/25 09:20:59;;;;;;;8.00;4.17;;;;;;;13.93;47.31;97095.66;5080968;28;20435;-65
2021/10/25 09:23:26;;;;;;;5.93;4.10;;;;;;;14.10;46.30;97096.34;5075550;28;20916;-65
2021/10/25 09:25:54;;;;;;;5.00;4.00;;;;;;;14.23;46.08;97094.91;5071002;28;20455;-64
2021/10/25 09:28:26;;;;;;;5.60;4.20;;;;;;;14.10;45.81;97098.97;5064186;28;20757;-66
2021/10/25 09:30:55;;;;;;;10.07;3.60;;;;;;;14.19;45.71;97093.63;5073480;28;20486;-66
2021/10/25 09:33:22;;;;;;;7.77;4.23;;;;;;;14.40;45.50;97087.69;5064373;28;20468;-64
2021/10/25 09:36:02;;;;;;;4.93;3.80;;;;;;;14.57;45.59;97091.81;5063660;28;20847;-65
2021/10/25 09:49:33;;;;;;;8.00;4.53;;;;;;;15.17;44.66;97083.91;5056855;28;20440;-68
2021/10/25 09:52:01;;;;;;;5.77;4.57;;;;;;;15.59;44.37;97086.00;5071915;28;20499;-66
2021/10/25 09:54:28;;;;;;;6.90;4.43;;;;;;;16.00;43.67;97085.41;5072418;28;20501;-63
2021/10/25 09:57:09;;;;;;;8.13;4.27;;;;;;;16.35;42.89;97087.28;5070770;28;20804;-64
2021/10/25 10:00:04;;;;;;;7.77;4.77;;;;;;;16.48;42.87;97089.25;5063048;28;20452;-67
2021/10/25 10:02:31;;;;;;;5.77;3.40;;;;;;;16.85;41.63;97076.66;5029462;28;20583;-65
2021/10/25 10:05:00;;;;;;;3.47;3.17;;;;;;;17.01;41.14;97078.97;5029572;28;20458;-65
2021/10/25 10:07:27;;;;;;;5.40;3.13;;;;;;;16.87;40.77;97069.34;5013431;28;20449;-65
2021/10/25 10:09:54;;;;;;;6.30;3.67;;;;;;;16.95;40.81;97074.50;5029727;28;20561;-65
2021/10/25 10:12:20;;;;;;;9.70;3.20;;;;;;;17.19;40.47;97059.94;5029688;28;20470;-67
2021/10/25 10:14:49;;;;;;;5.27;3.67;;;;;;;16.93;41.11;97065.88;5030453;28;20474;-64
2021/10/25 10:17:20;;;;;;;4.43;3.67;;;;;;;17.13;41.25;97066.00;5029396;28;20477;-67
2021/10/25 10:19:48;;;;;;;5.50;3.30;;;;;;;17.13;41.03;97066.00;5029511;28;21068;-63
2021/10/25 10:22:14;;;;;;;5.13;3.57;;;;;;;17.41;40.36;97066.91;5022305;28;20427;-67
2021/10/25 10:24:41;;;;;;;3.53;3.20;;;;;;;17.52;39.97;97063.69;5009768;28;20843;-66
2021/10/25 10:27:07;;;;;;;4.60;2.77;;;;;;;17.47;40.08;97063.47;5027380;28;20485;-66
2021/10/25 10:29:37;;;;;;;5.13;2.90;;;;;;;17.51;39.77;97059.44;4985826;28;20451;-65
2021/10/25 10:32:06;;;;;;;8.90;5.47;;;;;;;17.59;39.35;97058.41;5017060;28;20478;-66
2021/10/25 10:34:39;;;;;;;4.83;3.20;;;;;;;17.56;39.96;97058.81;5039641;28;20434;-65
2021/10/25 10:37:22;;;;;;;13.07;5.00;;;;;;;17.60;39.99;97062.69;5038865;28;20552;-68
2021/10/25 10:40:06;;;;;;;4.87;3.30;;;;;;;17.93;39.95;97064.59;5064181;28;20448;-65
2021/10/25 10:42:37;;;;;;;11.53;3.17;;;;;;;17.94;39.52;97061.72;5056596;28;20417;-66
2021/10/25 10:45:06;;;;;;;6.93;3.33;;;;;;;18.01;40.08;97072.34;5071569;28;20947;-65
2021/10/25 10:47:42;;;;;;;3.37;3.03;;;;;;;17.49;40.17;97066.75;5069912;28;20870;-65
2021/10/25 10:50:28;;;;;;;5.57;3.10;;;;;;;17.88;39.09;97065.19;5034857;28;20462;-65
2021/10/25 10:53:07;;;;;;;3.53;2.83;;;;;;;18.16;38.63;97064.19;5071114;28;20463;-65
2021/10/25 10:55:37;;;;;;;5.80;2.97;;;;;;;17.81;38.60;97069.66;5055111;28;20432;-66
2021/10/25 11:00:45;;;;;;;8.83;3.73;;;;;;;17.70;38.29;97065.78;5064300;28;20444;-63
2021/10/25 11:03:14;;;;;;;4.67;3.13;;;;;;;18.03;38.18;97064.19;5068943;28;20175;-64
2021/10/25 11:06:01;;;;;;;6.17;3.83;;;;;;;18.21;38.46;97063.59;5069836;28;20425;-65
2021/10/25 11:08:35;;;;;;;4.90;3.50;;;;;;;18.04;40.02;97060.53;5071787;28;20961;-65
2021/10/25 11:11:06;;;;;;;7.93;3.50;;;;;;;18.43;40.29;97053.56;5069657;28;20509;-65
2021/10/25 11:13:35;;;;;;;6.83;3.40;;;;;;;18.74;39.32;97052.09;5071064;28;20546;-63
2021/10/25 11:16:07;;;;;;;3.60;3.27;;;;;;;18.74;38.91;97054.75;5050053;28;20426;-64
2021/10/25 11:18:36;;;;;;;6.23;3.07;;;;;;;18.78;38.63;97045.31;5065793;28;20417;-65
2021/10/25 11:21:21;;;;;;;3.87;3.47;;;;;;;18.55;39.37;97051.91;5070057;28;20762;-64
2021/10/25 11:23:54;;;;;;;4.30;3.30;;;;;;;18.93;38.49;97036.31;5065819;28;20428;-66
2021/10/25 11:26:23;;;;;;;4.70;3.30;;;;;;;19.13;37.43;97042.41;5055979;28;20420;-64
2021/10/25 11:29:09;;;;;;;10.53;3.30;;;;;;;19.08;37.95;97039.53;5070236;28;20903;-69
2021/10/25 11:31:46;;;;;;;4.83;3.23;;;;;;;19.24;37.26;97037.44;5070477;28;20421;-64
2021/10/25 11:34:20;;;;;;;3.33;3.03;;;;;;;19.73;36.94;97027.94;5070201;28;20419;-64
2021/10/25 11:37:01;;;;;;;4.50;3.27;;;;;;;19.88;36.47;97032.19;5070744;28;20451;-65
2021/10/25 11:39:40;;;;;;;4.47;3.40;;;;;;;19.84;36.57;97025.63;5057972;28;20494;-65
2021/10/25 11:42:14;;;;;;;4.63;3.73;;;;;;;20.16;36.23;97021.09;5070406;28;20412;-64
2021/10/25 11:44:44;;;;;;;3.83;3.33;;;;;;;20.30;35.50;97024.44;5069567;28;20534;-64
2021/10/25 11:47:24;;;;;;;3.00;2.80;;;;;;;20.36;35.30;97028.91;5059686;28;20484;-65
2021/10/25 11:49:52;;;;;;;8.73;4.70;;;;;;;20.31;35.27;97018.09;5068984;28;20523;-65
2021/10/25 11:52:18;;;;;;;8.13;3.90;;;;;;;20.68;34.54;97015.47;5069013;28;20478;-65
2021/10/25 11:54:50;;;;;;;6.70;3.43;;;;;;;20.90;34.69;97007.06;5070431;28;21040;-64
2021/10/25 11:57:20;;;;;;;3.97;3.13;;;;;;;20.80;34.79;97012.91;5070018;28;20190;-66
2021/10/25 12:00:04;;;;;;;7.50;4.07;;;;;;;20.96;35.48;97014.16;5070575;28;20528;-65
2021/10/25 12:02:30;;;;;;;4.60;3.43;;;;;;;20.63;35.88;97011.84;5058758;28;20919;-65
2021/10/25 12:04:56;;;;;;;9.50;3.50;;;;;;;20.47;36.36;97006.06;5067247;28;20436;-63
2021/10/25 12:07:23;;;;;;;3.67;2.67;;;;;;;20.96;35.47;96992.84;5070042;28;20194;-64
2021/10/25 12:10:01;;;;;;;3.47;2.73;;;;;;;21.01;35.07;96997.50;5062236;28;20198;-67
2021/10/25 12:12:26;;;;;;;4.17;2.70;;;;;;;21.48;33.83;96992.34;5071073;28;20460;-65
2021/10/25 12:14:58;;;;;;;4.30;2.50;;;;;;;21.59;34.07;96993.44;5074134;28;20561;-65
2021/10/25 12:17:33;;;;;;;6.23;2.70;;;;;;;21.69;33.63;96992.06;5074003;28;20239;-66
2021/10/25 12:19:59;;;;;;;3.13;2.83;;;;;;;21.52;33.89;96984.72;5074581;28;20478;-64
2021/10/25 12:22:25;;;;;;;3.90;3.50;;;;;;;21.89;33.40;96976.56;5067584;28;20419;-65
2021/10/25 12:24:53;;;;;;;3.17;2.87;;;;;;;22.24;32.55;96978.44;5073452;28;20420;-65
2021/10/25 12:27:22;;;;;;;4.70;2.60;;;;;;;22.40;31.67;96976.91;5065744;28;20420;-65
2021/10/25 12:29:59;;;;;;;5.63;2.33;;;;;;;22.51;31.09;96972.63;5071944;28;20447;-64
2021/10/25 12:32:25;;;;;;;3.57;2.87;;;;;;;22.83;30.30;96966.06;5066419;28;20452;-66
2021/10/25 12:34:55;;;;;;;3.93;2.90;;;;;;;22.86;30.27;96966.41;5074815;28;21168;-64
2021/10/25 12:37:26;;;;;;;3.20;2.77;;;;;;;21.94;31.25;96973.22;5069830;28;20308;-65
2021/10/25 12:39:56;;;;;;;4.47;2.73;;;;;;;22.13;31.23;96973.91;5070115;28;20999;-62
2021/10/25 12:42:25;;;;;;;3.73;3.07;;;;;;;22.91;30.15;96960.34;5073621;28;20420;-65
2021/10/25 12:44:54;;;;;;;6.10;2.70;;;;;;;23.22;29.31;96965.47;5074653;28;20970;-65
2021/10/25 12:47:24;;;;;;;5.23;2.90;;;;;;;22.80;28.88;96959.34;5073331;28;20812;-64
2021/10/25 12:49:52;;;;;;;3.70;2.80;;;;;;;23.16;28.78;96954.69;5073503;28;20436;-65
2021/10/25 12:52:19;;;;;;;5.83;2.43;;;;;;;23.16;28.77;96956.53;5057761;28;20480;-64
2021/10/25 12:54:45;;;;;;;4.53;2.70;;;;;;;23.22;28.05;96950.25;5059893;28;20432;-64
2021/10/25 12:57:23;;;;;;;4.73;2.60;;;;;;;23.28;28.26;96953.84;5051334;28;20977;-64
2021/10/25 13:00:10;;;;;;;5.40;2.70;;;;;;;23.88;27.00;96940.91;5040134;28;20434;-66
2021/10/25 13:02:48;;;;;;;4.60;2.10;;;;;;;24.17;25.80;96949.66;5075012;28;20420;-65
2021/10/25 13:05:33;;;;;;;7.60;3.20;;;;;;;24.76;24.87;96939.44;5057167;28;21056;-64
2021/10/25 13:08:01;;;;;;;2.03;1.60;;;;;;;25.10;24.18;96941.94;5073931;28;20460;-65
2021/10/25 13:10:31;;;;;;;4.40;3.20;;;;;;;25.48;24.06;96940.19;5066676;28;20472;-66
2021/10/25 13:12:59;;;;;;;2.30;2.10;;;;;;;25.36;23.75;96942.19;5074174;28;20463;-64
2021/10/25 13:15:25;;;;;;;3.63;2.27;;;;;;;26.11;23.03;96930.75;5073852;28;20423;-64
2021/10/25 13:17:57;;;;;;;2.90;1.93;;;;;;;26.04;22.96;96937.09;5067083;28;20600;-66
2021/10/25 13:20:24;;;;;;;3.70;2.20;;;;;;;26.35;22.50;96937.31;5062132;28;20193;-66
2021/10/25 13:22:56;;;;;;;6.33;1.60;;;;;;;26.78;21.87;96931.88;5064423;28;20455;-64